Pont Aven — FNPN — position and weather

sailwx.info

Track history (hours):
 
Tides and Currents Weather Stations Pressure Air Temp Water Temp Dewpoint Dewpoint Depression Visibility Wind Speed Wind Dir Waves Ship Positions

Pont Aven

Last reported at 2017-Dec-11 17:00 UTC. Time now 2017-Dec-14 15:05 UTC.
Position N 50°49' W 001°06'.

Length 185 m; beam 31 m.

Type: Passenger vessel. MMSI: 228183600.

Date/timePositionNaut miles runAvg speedWind from/ knotsBaromVisibWave heightAir tempDewpointWater temp
2017-Dec-11 17:00N 50°49' W 001°06'3 6.9
2017-Dec-11 16:31N 50°45' W 001°05'714.8
2017-Dec-11 16:01N 50°39' W 000°59'1122.3
2017-Dec-11 15:30N 50°28' W 001°04'3820.4
2017-Dec-11 13:38N 49°54' W 001°28'519.7
2017-Dec-11 13:23N 49°50' W 001°32'719.1
2017-Dec-11 13:00N 49°43' W 001°38'50 3.5
2017-Dec-10 23:00N 50°30' W 001°11'713.5
2017-Dec-10 22:28N 50°35' W 001°03'2 3.5
2017-Dec-10 22:01N 50°36' W 001°02'713.2
2017-Dec-10 21:31N 50°43' W 000°59'611.8
2017-Dec-10 21:00N 50°46' W 001°06'2 4.4
2017-Dec-10 20:30N 50°49' W 001°06'0 0.0
2017-Dec-10 20:00N 50°49' W 001°06'0 0.0
2017-Dec-10 19:30N 50°49' W 001°06'0 0.0
2017-Dec-10 19:00N 50°49' W 001°06'0 0.0
2017-Dec-10 18:30N 50°49' W 001°06'0 0.0
2017-Dec-10 18:00N 50°49' W 001°06'0 0.0
2017-Dec-10 17:30N 50°49' W 001°06'0 0.0
2017-Dec-10 17:00N 50°49' W 001°06'0 0.0
2017-Dec-10 16:30N 50°49' W 001°06'0 0.0
2017-Dec-10 16:00N 50°49' W 001°06'0 0.0
2017-Dec-10 15:30N 50°49' W 001°06'0 0.0
2017-Dec-10 15:00N 50°49' W 001°06'0 0.0
2017-Dec-10 14:30N 50°49' W 001°06'0 0.0
2017-Dec-10 14:00N 50°49' W 001°06'0 0.0
2017-Dec-10 13:30N 50°49' W 001°06'0 0.0
2017-Dec-10 13:00N 50°49' W 001°06'0 0.0
2017-Dec-10 12:30N 50°49' W 001°06'0 0.0
2017-Dec-10 12:00N 50°49' W 001°06'0 0.0
2017-Dec-10 11:30N 50°49' W 001°06'0 0.0
2017-Dec-10 11:00N 50°49' W 001°06'0 0.0
2017-Dec-10 10:30N 50°49' W 001°06'0 0.0
2017-Dec-10 10:00N 50°49' W 001°06'0 0.0
2017-Dec-10 09:30N 50°49' W 001°06'0 0.0
2017-Dec-10 09:00N 50°49' W 001°06'0 0.0
2017-Dec-10 08:30N 50°49' W 001°06'0 0.0
2017-Dec-10 08:00N 50°49' W 001°06'1 1.4
2017-Dec-10 07:31N 50°49' W 001°07'510.8
2017-Dec-10 07:01N 50°44' W 001°03'714.7
2017-Dec-10 06:31N 50°36' W 001°02'816.2
2017-Dec-10 06:00N 50°30' W 001°10'6415.1
2017-Dec-10 01:48N 49°37' W 002°06'617.0
2017-Dec-10 01:25N 49°31' W 002°09'717.1
2017-Dec-10 00:59N 49°25' W 002°15'817.3
2017-Dec-10 00:31N 49°19' W 002°24'2 0.1
2017-Dec-09 03:53N 49°21' W 002°22'616.2
2017-Dec-09 03:30N 49°25' W 002°15'816.7
2017-Dec-09 03:00N 49°33' W 002°10'917.4
2017-Dec-09 02:30N 49°41' W 002°04'6314.1
2017-Dec-08 22:02N 50°31' W 001°05'013.5
2017-Dec-08 22:00N 50°32' W 001°05'714.3
2017-Dec-08 21:31N 50°38' W 000°59'611.8
2017-Dec-08 21:01N 50°44' W 001°02'510.8
2017-Dec-08 20:30N 50°48' W 001°07'1 1.9
2017-Dec-08 20:00N 50°49' W 001°06'0 0.0
2017-Dec-08 19:30N 50°49' W 001°06'0 0.0
2017-Dec-08 19:00N 50°49' W 001°06'0 0.0
2017-Dec-08 18:29N 50°49' W 001°06'0 0.0
2017-Dec-08 17:59N 50°49' W 001°06'0 0.0
2017-Dec-08 17:29N 50°49' W 001°06'0 0.0
2017-Dec-08 16:59N 50°49' W 001°06'0 0.0
2017-Dec-08 16:29N 50°49' W 001°06'0 0.0
2017-Dec-08 15:59N 50°49' W 001°06'0 0.0
2017-Dec-08 15:29N 50°49' W 001°06'0 0.0
2017-Dec-08 14:59N 50°49' W 001°06'0 0.0
2017-Dec-08 14:29N 50°49' W 001°06'0 0.0
2017-Dec-08 13:59N 50°49' W 001°06'0 0.0
2017-Dec-08 13:29N 50°49' W 001°06'0 0.0
2017-Dec-08 12:59N 50°49' W 001°06'0 0.0
2017-Dec-08 12:29N 50°49' W 001°06'0 0.0
2017-Dec-08 11:59N 50°49' W 001°06'0 0.0
2017-Dec-08 11:29N 50°49' W 001°06'0 0.0
2017-Dec-08 10:59N 50°49' W 001°06'0 0.0
2017-Dec-08 10:29N 50°49' W 001°06'0 0.0
2017-Dec-08 09:59N 50°49' W 001°06'0 0.0
2017-Dec-08 09:29N 50°49' W 001°06'0 0.0
2017-Dec-08 08:59N 50°49' W 001°06'0 0.0
2017-Dec-08 08:31N 50°49' W 001°06'0 0.0
2017-Dec-08 08:00N 50°49' W 001°06'0 0.1
2017-Dec-08 07:30N 50°49' W 001°06'3 5.1
2017-Dec-08 07:01N 50°46' W 001°05'714.3
2017-Dec-08 06:31N 50°41' W 000°58'1019.1
2017-Dec-08 06:01N 50°33' W 001°07'6613.8
2017-Dec-08 01:15N 49°38' W 002°05'313.7
2017-Dec-08 01:00N 49°35' W 002°07'714.7
2017-Dec-08 00:30N 49°29' W 002°12'816.4
2017-Dec-08 00:00N 49°22' W 002°18'74 4.3
2017-Dec-07 06:30N 48°45' W 003°57'812.6
2017-Dec-07 05:52N 48°48' W 004°08'617.0
2017-Dec-07 05:30N 48°46' W 004°17'817.2
2017-Dec-07 05:00N 48°44' W 004°29'917.3
2017-Dec-07 04:30N 48°40' W 004°41'917.6
2017-Dec-07 04:01N 48°35' W 004°51'917.4
2017-Dec-07 03:31N 48°28' W 004°60'815.7
2017-Dec-07 03:00N 48°22' W 005°07'917.2
2017-Dec-07 02:30N 48°13' W 005°09'816.8
2017-Dec-07 02:00N 48°05' W 005°10'918.2
2017-Dec-07 01:30N 47°56' W 005°08'1020.9
2017-Dec-07 01:00N 47°46' W 005°05'1120.7
2017-Dec-07 00:29N 47°35' W 005°02'  
Track history (hours):
 
Tides and Currents Weather Stations Pressure Air Temp Water Temp Dewpoint Dewpoint Depression Visibility Wind Speed Wind Dir Waves Ship Positions

Pont Aven

Last reported at 2017-Dec-11 17:00 UTC. Time now 2017-Dec-14 15:05 UTC.
Position N 50°49' W 001°06'.

Length 185 m; beam 31 m.

Type: Passenger vessel. MMSI: 228183600.

Date/timePositionNaut miles runAvg speedWind from/ knotsBaromVisibWave heightAir tempDewpointWater temp
2017-Dec-11 17:00N 50°49' W 001°06'3 6.9
2017-Dec-11 16:31N 50°45' W 001°05'714.8
2017-Dec-11 16:01N 50°39' W 000°59'1122.3
2017-Dec-11 15:30N 50°28' W 001°04'3820.4
2017-Dec-11 13:38N 49°54' W 001°28'519.7
2017-Dec-11 13:23N 49°50' W 001°32'719.1
2017-Dec-11 13:00N 49°43' W 001°38'50 3.5
2017-Dec-10 23:00N 50°30' W 001°11'713.5
2017-Dec-10 22:28N 50°35' W 001°03'2 3.5
2017-Dec-10 22:01N 50°36' W 001°02'713.2
2017-Dec-10 21:31N 50°43' W 000°59'611.8
2017-Dec-10 21:00N 50°46' W 001°06'2 4.4
2017-Dec-10 20:30N 50°49' W 001°06'0 0.0
2017-Dec-10 20:00N 50°49' W 001°06'0 0.0
2017-Dec-10 19:30N 50°49' W 001°06'0 0.0
2017-Dec-10 19:00N 50°49' W 001°06'0 0.0
2017-Dec-10 18:30N 50°49' W 001°06'0 0.0
2017-Dec-10 18:00N 50°49' W 001°06'0 0.0
2017-Dec-10 17:30N 50°49' W 001°06'0 0.0
2017-Dec-10 17:00N 50°49' W 001°06'0 0.0
2017-Dec-10 16:30N 50°49' W 001°06'0 0.0
2017-Dec-10 16:00N 50°49' W 001°06'0 0.0
2017-Dec-10 15:30N 50°49' W 001°06'0 0.0
2017-Dec-10 15:00N 50°49' W 001°06'0 0.0
2017-Dec-10 14:30N 50°49' W 001°06'0 0.0
2017-Dec-10 14:00N 50°49' W 001°06'0 0.0
2017-Dec-10 13:30N 50°49' W 001°06'0 0.0
2017-Dec-10 13:00N 50°49' W 001°06'0 0.0
2017-Dec-10 12:30N 50°49' W 001°06'0 0.0
2017-Dec-10 12:00N 50°49' W 001°06'0 0.0
2017-Dec-10 11:30N 50°49' W 001°06'0 0.0
2017-Dec-10 11:00N 50°49' W 001°06'0 0.0
2017-Dec-10 10:30N 50°49' W 001°06'0 0.0
2017-Dec-10 10:00N 50°49' W 001°06'0 0.0
2017-Dec-10 09:30N 50°49' W 001°06'0 0.0
2017-Dec-10 09:00N 50°49' W 001°06'0 0.0
2017-Dec-10 08:30N 50°49' W 001°06'0 0.0
2017-Dec-10 08:00N 50°49' W 001°06'1 1.4
2017-Dec-10 07:31N 50°49' W 001°07'510.8
2017-Dec-10 07:01N 50°44' W 001°03'714.7
2017-Dec-10 06:31N 50°36' W 001°02'816.2
2017-Dec-10 06:00N 50°30' W 001°10'6415.1
2017-Dec-10 01:48N 49°37' W 002°06'617.0
2017-Dec-10 01:25N 49°31' W 002°09'717.1
2017-Dec-10 00:59N 49°25' W 002°15'817.3
2017-Dec-10 00:31N 49°19' W 002°24'2 0.1
2017-Dec-09 03:53N 49°21' W 002°22'616.2
2017-Dec-09 03:30N 49°25' W 002°15'816.7
2017-Dec-09 03:00N 49°33' W 002°10'917.4
2017-Dec-09 02:30N 49°41' W 002°04'6314.1
2017-Dec-08 22:02N 50°31' W 001°05'013.5
2017-Dec-08 22:00N 50°32' W 001°05'714.3
2017-Dec-08 21:31N 50°38' W 000°59'611.8
2017-Dec-08 21:01N 50°44' W 001°02'510.8
2017-Dec-08 20:30N 50°48' W 001°07'1 1.9
2017-Dec-08 20:00N 50°49' W 001°06'0 0.0
2017-Dec-08 19:30N 50°49' W 001°06'0 0.0
2017-Dec-08 19:00N 50°49' W 001°06'0 0.0
2017-Dec-08 18:29N 50°49' W 001°06'0 0.0
2017-Dec-08 17:59N 50°49' W 001°06'0 0.0
2017-Dec-08 17:29N 50°49' W 001°06'0 0.0
2017-Dec-08 16:59N 50°49' W 001°06'0 0.0
2017-Dec-08 16:29N 50°49' W 001°06'0 0.0
2017-Dec-08 15:59N 50°49' W 001°06'0 0.0
2017-Dec-08 15:29N 50°49' W 001°06'0 0.0
2017-Dec-08 14:59N 50°49' W 001°06'0 0.0
2017-Dec-08 14:29N 50°49' W 001°06'0 0.0
2017-Dec-08 13:59N 50°49' W 001°06'0 0.0
2017-Dec-08 13:29N 50°49' W 001°06'0 0.0
2017-Dec-08 12:59N 50°49' W 001°06'0 0.0
2017-Dec-08 12:29N 50°49' W 001°06'0 0.0
2017-Dec-08 11:59N 50°49' W 001°06'0 0.0
2017-Dec-08 11:29N 50°49' W 001°06'0 0.0
2017-Dec-08 10:59N 50°49' W 001°06'0 0.0
2017-Dec-08 10:29N 50°49' W 001°06'0 0.0
2017-Dec-08 09:59N 50°49' W 001°06'0 0.0
2017-Dec-08 09:29N 50°49' W 001°06'0 0.0
2017-Dec-08 08:59N 50°49' W 001°06'0 0.0
2017-Dec-08 08:31N 50°49' W 001°06'0 0.0
2017-Dec-08 08:00N 50°49' W 001°06'0 0.1
2017-Dec-08 07:30N 50°49' W 001°06'3 5.1
2017-Dec-08 07:01N 50°46' W 001°05'714.3
2017-Dec-08 06:31N 50°41' W 000°58'1019.1
2017-Dec-08 06:01N 50°33' W 001°07'6613.8
2017-Dec-08 01:15N 49°38' W 002°05'313.7
2017-Dec-08 01:00N 49°35' W 002°07'714.7
2017-Dec-08 00:30N 49°29' W 002°12'816.4
2017-Dec-08 00:00N 49°22' W 002°18'74 4.3
2017-Dec-07 06:30N 48°45' W 003°57'812.6
2017-Dec-07 05:52N 48°48' W 004°08'617.0
2017-Dec-07 05:30N 48°46' W 004°17'817.2
2017-Dec-07 05:00N 48°44' W 004°29'917.3
2017-Dec-07 04:30N 48°40' W 004°41'917.6
2017-Dec-07 04:01N 48°35' W 004°51'917.4
2017-Dec-07 03:31N 48°28' W 004°60'815.7
2017-Dec-07 03:00N 48°22' W 005°07'917.2
2017-Dec-07 02:30N 48°13' W 005°09'816.8
2017-Dec-07 02:00N 48°05' W 005°10'918.2
2017-Dec-07 01:30N 47°56' W 005°08'1020.9
2017-Dec-07 01:00N 47°46' W 005°05'1120.7
2017-Dec-07 00:29N 47°35' W 005°02'  

Dump ship's entire track history